European Hang Gliding Championship Class 1 2018

2018-07-08 to 2018-07-21

Task 4

2018-07-13 Task 4

Race to Goal 125.5 km

Provisional v2

No Leg Dist. Id Radius Open Close Coordinates Altitude
1 0.0 km D01 400 m 11:50 14:50 Lat: 41.3435 Lon: 21.25683 1410 m
2 SS 4.0 km B49 18000 m 13:35 19:00 Lat: 41.35133 Lon: 21.5245 640 m
3 20.4 km B49 2000 m 13:35 19:00 Lat: 41.35133 Lon: 21.5245 640 m
4 36.8 km B40 4000 m 13:35 19:00 Lat: 41.53633 Lon: 21.42883 800 m
5 103.8 km B39 400 m 13:35 19:00 Lat: 40.90583 Lon: 21.58967 700 m
6 121.9 km B35 400 m 13:35 19:00 Lat: 41.04467 Lon: 21.4625 580 m
7 ES 125.5 km A09 400 m 13:35 19:00 Lat: 41.019 Lon: 21.42483 570 m
StartGate(s): 13:35, 13:55, 14:15

# Id Name Nat Glider Sponsor SS ES Time km/h Distance Dist.
Points
Lead.
Points
Time
Points
Arr.
Pos.
Points
Total
1 77 Balazs Ujhelyi M HUN Moyes RX 3.5 Pro 13:35:00 16:05:24 02:30:24 48.5 125.49 380.7 90.8 433.5 77.4 982
2 36 Marco Laurenzi M ITA Icaro Laminar AeCI, Icaro2000, Woody Valley, Digifly 13:35:00 16:13:14 02:38:14 46.1 125.49 380.7 82.6 351.4 74.5 889
3 33 Alessandro Ploner M ITA AeCI, Icaro2000, ADIDAS, Woody Valley 13:35:00 16:17:17 02:42:17 44.9 125.49 380.7 108.4 325.1 68.9 883
4 39 Grant Crossingham M GBR Moyes RX 3.5 Pro 13:35:00 16:15:35 02:40:35 45.4 125.49 380.7 71.5 335.7 71.6 860
5 55 Petr Benes M CZE Aeros combat 13:35:00 16:19:15 02:44:15 44.4 125.49 380.7 69.0 313.4 66.2 829
6 110 Jochen Zeischka M BEL Moyes RX 5 Pro Plastiqual 13:35:00 16:19:30 02:44:30 44.3 125.49 380.7 70.6 312.0 63.7 827
7 43 Oliver Chitty M GBR Moyes RX5 Pro Crosscountry, Moyes, Flytec 13:35:00 16:20:11 02:45:11 44.1 125.49 380.7 73.2 308.1 58.8 821
8 79 László Ökrös M HUN Moyes RX 3.5 13:35:00 16:21:16 02:46:16 43.8 125.49 380.7 76.6 302.0 56.5 816
9 87 Matjaz Klemencic M SLO Moyes RX 3.5 Pro 13:35:00 16:19:38 02:44:38 44.3 125.49 380.7 56.2 311.2 61.2 809
10 42 Carl Wallbank M GBR Moyes RX 3.5 Pro 13:35:00 16:21:56 02:46:56 43.7 125.49 380.7 62.8 298.4 54.3 796
11 48 Thomas Weissenberger M AUT Icaro Laminar 2018 Westover Companies/Icaro/Skyline/Naviter 13:35:00 16:25:26 02:50:26 42.8 125.49 380.7 67.3 279.9 52.2 780
12 35 Filippo Oppici M ITA WILLS WING T2C 144 AeCI, Wills Wing 13:35:00 16:26:03 02:51:03 42.6 125.49 380.7 54.3 276.8 50.1 762
13 88 Franc Peternel M SLO WILLS WING T2C 144 13:35:00 16:26:28 02:51:28 42.5 125.49 380.7 53.5 274.7 48.1 757
14 37 Anton Moroder M ITA laminar AeCI, Icaro2000, Woody Valley 13:35:00 16:27:11 02:52:11 42.3 125.49 380.7 54.3 271.1 46.2 752
15 34 Davide Guiducci M ITA Laminar 13.2 AeCI, Icaro2000, Woody Valley 13:35:00 16:27:18 02:52:18 42.3 125.49 380.7 53.2 270.5 44.4 749
16 89 Stanislav Galovec M SLO ICARO 2000, Laminar 14.1 13:35:00 16:28:23 02:53:23 42.0 125.49 380.7 52.1 265.2 42.7 741
17 121 Jonny Durand Jnr M AUS Moyes RX 3.5 PRO 13:55:00 16:40:13 02:45:13 44.1 125.49 380.7 14.7 307.9 26.0 729
18 61 Eric Mathurin M FRA Moyes RX 3.5 Pro 13:35:00 16:34:14 02:59:14 40.7 125.49 380.7 52.0 237.7 41.0 711
19 106 Olav Opsanger M NOR Moyes RX 3.5 Pro 13:35:00 16:35:24 03:00:24 40.4 125.49 380.7 53.4 232.5 39.4 706
20 72 Gerd Dönhuber M GER Moyes RX 3.5 13:35:00 16:35:44 03:00:44 40.3 125.49 380.7 48.2 231.0 37.8 698
21 49 Christian Preininger M AUT Moyes Litespeed S3,5 13:34:54 16:35:54 03:01:00 40.3 125.49 380.7 48.8 229.8 36.4 693
22 125 Brad Porter M AUS Moyes RX 3.5 Pro 13:35:00 16:37:10 03:02:10 40.0 125.49 380.7 51.7 224.7 35.0 692
22 51 Dietmar Tschabrun M AUT Aeros Combat 12,7 GT 13:35:00 16:38:12 03:03:12 39.8 125.49 380.7 57.9 220.1 33.7 692
24 126 Guy Hubbard M AUS Moyes RX 3.5 Pro 13:35:00 16:38:45 03:03:45 39.7 125.49 380.7 58.7 217.8 30.0 687
25 93 Gijs Wanders M NED Wills Wing T2C 144 13:35:00 16:38:40 03:03:40 39.7 125.49 380.7 50.4 218.1 31.2 680
26 67 Damien Zahn M SUI Moyes RX 3 13:35:00 16:38:37 03:03:37 39.7 125.49 380.7 45.3 218.3 32.4 677
27 73 Corinna Schwiegershausen F GER Moyes RX 3 13:35:00 16:39:45 03:04:45 39.5 125.49 380.7 50.5 213.5 28.9 674
28 123 Steve Blenkinsop M AUS Moyes RX 3.5 13:35:00 16:40:03 03:05:03 39.4 125.49 380.7 52.4 212.2 26.9 672
29 56 Petr Polách M CZE Aeros Combat 13,5 GT 13:35:00 16:39:57 03:04:57 39.4 125.49 380.7 49.5 212.6 27.9 671
30 90 Peter Kejzar M SLO Aeros Combat 12,7 13:35:00 16:43:25 03:08:25 38.7 125.49 380.7 52.4 198.1 25.1 656
31 66 Benedikt Braun M SUI Combat 12.7 C 13:35:00 16:45:45 03:10:45 38.2 125.49 380.7 52.5 188.5 23.5 645
32 98 Emiel Jansen M NED Laminar 14.8 (2018) 13:35:00 16:47:01 03:12:01 38.0 125.49 380.7 58.4 183.4 20.9 643
33 46 Malcolm Brown M GBR Wills Wing T2C 13:35:00 16:46:09 03:11:09 38.1 125.49 380.7 50.4 186.9 22.8 641
34 91 Janez Grm M SLO Combat 13.2 13:35:00 16:45:24 03:10:24 38.3 125.49 380.7 43.1 190.0 24.3 638
35 74 Jörg Bajewski M GER Laminar Z9 17 13:35:00 16:46:17 03:11:17 38.1 125.49 380.7 45.3 186.4 22.1 635
36 108 Johnny Nilssen M NOR Icaro Laminar 2018 13:35:00 16:46:42 03:11:42 38.0 125.49 380.7 44.1 184.7 21.5 631
37 122 Trent Brown M AUS Moyes RX 3.5 13:35:00 16:49:40 03:14:40 37.4 125.49 380.7 49.3 172.9 20.4 623
38 124 Josh Woods M AUS Moyes RX 3.5 Pro 13:35:00 16:52:43 03:17:43 36.9 125.49 380.7 54.3 161.1 19.4 616
39 127 Yoko Sano F JPN T2C136 13:35:00 16:52:49 03:17:49 36.8 125.49 380.7 50.7 160.7 18.9 611
40 52 Raimund Kaiser M AUT Icaro Laminar 13.2 13:35:00 16:50:17 03:15:17 37.3 125.49 380.7 37.9 170.5 19.8 609
41 41 Dave Matthews M GBR Moyer RX 3.5 13:35:00 16:55:29 03:20:29 36.4 125.49 380.7 50.4 150.6 18.5 600
42 38 Tullio Gervasoni M ITA Wills Wing T2C AeCI, Wills Wing 13:35:00 16:59:09 03:24:09 35.7 125.49 380.7 52.6 136.9 16.8 587
43 59 Vlastimil Bartas M CZE 13:35:00 16:56:44 03:21:44 36.1 125.49 380.7 37.2 145.9 17.8 582
44 100 Anton Struganov M RUS Moyes RX4 13:35:00 16:58:57 03:23:57 35.7 125.49 380.7 44.2 137.7 17.0 580
45 82 Daniel Martín Mota M ESP 13:35:00 16:56:07 03:21:07 36.2 125.49 380.7 27.9 148.2 18.2 575
46 117 Justinas Pleikys M LTU Moyes RX 5 13:35:00 16:57:45 03:22:45 35.9 125.49 380.7 30.7 142.1 17.5 571
47 115 Jaroslav Sojka M SVK Moyes RX 5 Pro 13:55:00 17:12:14 03:17:14 37.0 125.49 380.7 163.0 16.0 560
48 75 Kajo Clauß M GER Aeros Combat 13:35:00 17:03:43 03:28:43 34.9 125.49 380.7 37.1 120.4 16.6 555
49 118 Saulius Guobuzas M LTU Moyes RS 4 13:35:00 16:57:46 03:22:46 35.9 125.49 380.7 7.6 142.1 17.2 548
50 92 Arne Tänzer M NED Icaro 2000 - Laminar 13:35:00 17:05:59 03:30:59 34.5 125.49 380.7 29.8 112.3 16.4 539
51 94 Mario Campanella M NED WW - T2C 13:35:00 17:13:16 03:38:16 33.4 125.49 380.7 40.7 87.1 15.8 524
52 102 Anton Bondarenko M RUS T2C 144 13:35:00 17:09:28 03:34:28 34.0 125.49 380.7 24.8 100.1 16.1 522
53 104 Walentin Teraud M RUS Moyes RX 3.5 13:35:00 17:15:12 03:40:12 33.1 125.49 380.7 25.9 80.5 15.7 503
54 40 Gordon Rigg M GBR Moyes RX 3.5 Pro 13:35:00 17:09:18 03:34:18 34.0 125.49 380.7 100.7 16.2 498
55 44 Darren Brown M GBR Wills Wing T2C 13:35:00 17:14:29 03:39:29 33.2 125.49 380.7 11.4 82.9 15.7 491
56 32 Christian Ciech M ITA Laminar Icaro 2000 AeCI, Icaro2000, Woody Valley, G-Force 13:35:00 120.74 364.0 100.6 465
57 65 Eric Wyss M FRA Icaro Laminar 13:35:00 17:23:23 03:48:23 31.9 125.49 380.7 5.5 53.4 15.6 455
58 132 Pedro L. Garcia M USA T2C 144 13:35:00 125.26 380.4 59.3 440
59 63 Antoine Saraf M FRA Aeros Combat C12.7 13:35:00 123.12 376.0 54.7 431
60 53 Alexander Sigl M AUT WW T2C 144 13:35:00 122.99 375.7 51.3 427
61 128 Nagusa Akira M JPN T2C144 13:35:00 122.62 374.2 50.2 424
61 114 Mikolaj Przezdziak M POL Aeros Combat 12.7gt 13:35:00 121.83 370.1 53.6 424
63 58 Petr Tucek M CZE 13:35:00 123.17 376.1 47.0 423
63 81 Zsigmond Toth M HUN Combat Gt 13.5 13:35:00 17:31:51 03:56:51 30.8 125.49 380.7 26.4 15.5 423
65 60 Francois Isoard M FRA Aeros Combat GT 12,7 13:35:00 122.71 374.6 47.4 422
66 130 Evan Smith M CAN T2C 144 13:35:00 123.01 375.7 21.5 397
67 47 Kathleen Rigg F GBR Moyes RX 3.5 13:35:00 99.06 284.6 39.0 324
68 111 Kamil DEMİRKAN M TUR Aeros Combat GT 13:55:00 79.18 248.2 248
69 70 Primoz Gricar M GER 13:35:00 67.26 224.1 9.9 234
70 107 Erland Åmot M NOR Moyes RX 3.5 Pro 13:35:00 65.49 220.4 220
71 133 Konrad Heilmann M BRA Moyes RX 3.5 Pro 13:35:00 62.04 211.6 212
72 129 Hiroshi Onuma M JPN ICARO2000 Laminar 13:55:00 60.76 207.7 208
73 54 Dan Vyhnalik M CZE Aeros Combat 13.5 GT 13:35:00 58.56 199.9 200
74 57 Jiri Gut M CZE Wills Wing T2C 13:35:00 58.35 199.1 199
75 71 Roland Wöhrle M GER Moyes RX 3.5 13:35:00 55.15 184.4 184
76 62 Christian Pollet M FRA 13:55:00 52.09 170.9 171
77 113 Nikola Barakovski M MKD 13:55:00 50.85 165.2 165
78 95 Joost Eertman M NED 13:35:00 50.43 163.1 163
79 45 Andy Hollidge M GBR Moyes RX 3.5 13:35:00 47.85 150.1 150
80 68 Alain Woeffray M SUI Wills Wing T2C 154 13:35:00 47.11 146.3 146
81 112 Canberg Özveren M TUR Aeros Combat GT 13:35:00 46.33 141.9 142
82 97 Sander Van Schaik M NED Icaro Laminar 13:35:00 44.12 130.6 131
83 101 Sasha Serebrennikova F RUS Moyes RX 3 Pro 13:55:00 36.98 96.5 97
84 80 Atilla Kis M HUN Aeros Combat 13:35:00 32.06 80.9 81
85 99 Gennadiy Khramov M RUS WillsWing 144 13:35:00 27.64 69.6 70
85 105 Anatoly Reyter M RUS Wills Wing T2C-136 13:35:00 27.71 69.9 70
87 103 Alexander Barvinskiy M RUS Aeros Combat 12.7 13:35:00 19.02 42.3 42
88 109 Tormod Helgesen M NOR Moyes RX 3.5 7.00 14.3 14

Penalties

Note: % penalty is used to calc penalty as a % of total score. Both types can be combined. None affect the scoring of other pilots.
Id Name % penalty points penalty Reason
49 Christian Preininger 3 Jumped the gun by 0:06

Pilots absent from task (ABS)

Id Name
96 Araldo van de Kraats

Pilots not yet processed (NYP)

Id Name

Task statistics

param value
ss_distance 121.476
task_distance 125.486
launch_to_ess_distance 125.486
no_of_pilots_present 88
no_of_pilots_flying 88
no_of_pilots_lo 31
no_of_pilots_reaching_nom_dist 67
no_of_pilots_reaching_es 57
no_of_pilots_reaching_goal 57
sum_flown_distance 9349.858
best_dist 125.486
best_time 2.50666666666667
worst_time 3.9475
no_of_pilots_in_competition 89
no_of_pilots_landed_before_stop 0
sum_dist_over_min 8737.227
sum_real_dist_over_min 8737.227
sum_flown_distances 9349.858
best_real_dist 125.486
last_start_time 2018-07-13T13:55:00+02:00
first_start_time 2018-07-13T13:34:54+02:00
first_finish_time 2018-07-13T16:05:24+02:00
max_time_to_get_time_points 4.08991227827172
no_of_pilots_with_time_points 57
goalratio 0.647727272727273
arrival_weight 0.0774119397055198
departure_weight 0
leading_weight 0.108376715587728
time_weight 0.433506862350911
distance_weight 0.380704482355842
smallest_leading_coefficient 1.67101521492979
available_points_distance 380.704482355842
available_points_time 433.506862350911
available_points_departure 0
available_points_leading 108.376715587728
available_points_arrival 77.4119397055198
time_validity 1
launch_validity 1
distance_validity 1
stop_validity 1
day_quality 1
ftv_day_validity 1
time_points_stop_correction 0

Scoring formula settings

param value
id GAP2016
min_dist 7
nom_dist 80
nom_time 1.75
nom_launch 0.96
nom_goal 0.3
day_quality_override 0
bonus_gr 5
jump_the_gun_factor 2
jump_the_gun_max 300
normalize_1000_before_day_quality 0
time_points_if_not_in_goal 0.8
use_1000_points_for_max_day_quality 0
use_arrival_position_points 1
use_arrival_time_points 0
use_departure_points 0
use_difficulty_for_distance_points 1
use_distance_points 1
use_distance_squared_for_LC 1
use_leading_points 1
use_semi_circle_control_zone_for_goal_line 0
use_time_points 1
scoring_altitude QNH
final_glide_decelerator none
no_final_glide_decelerator_reason
min_time_span_for_valid_task 90
score_back_time 15
use_proportional_leading_weight_if_nobody_in_goal 0
double_leading_weight 0
Report created: 2018-07-13T22:53:52+02:00

FS development, maintenance and support by